Time;durP1;ratioP1;P1;durP2;ratioP2;P2;SDS_P1;SDS_P2;PMS_P1;PMS_P2;Temp;Humidity;BMP_temperature;BMP_pressure;BME280_temperature;BME280_humidity;BME280_pressure;Samples;Min_cycle;Max_cycle;Signal;HPM_P1;HPM_P2
2022/05/13 00:00:12;;;;;;;11.38;6.03;;;17.70;99.90;;;;;;5066356;28;20032;-71
2022/05/13 00:02:38;;;;;;;10.98;6.97;;;17.70;99.90;;;;;;5061586;28;20025;-71
2022/05/13 00:05:10;;;;;;;11.95;6.85;;;17.70;99.90;;;;;;5060864;28;20025;-71
2022/05/13 00:07:39;;;;;;;8.50;6.07;;;17.60;99.90;;;;;;5060623;28;20111;-72
2022/05/13 00:10:10;;;;;;;8.10;6.50;;;17.60;99.90;;;;;;5043907;28;20020;-71
2022/05/13 00:12:40;;;;;;;9.18;5.97;;;17.60;99.90;;;;;;5060000;28;20107;-71
2022/05/13 00:15:18;;;;;;;10.63;6.38;;;17.60;99.90;;;;;;5060782;28;20108;-70
2022/05/13 00:17:44;;;;;;;10.80;6.78;;;17.60;99.90;;;;;;5064355;28;20032;-71
2022/05/13 00:20:20;;;;;;;10.90;6.10;;;17.60;99.90;;;;;;5066170;28;20032;-71
2022/05/13 00:22:52;;;;;;;8.63;6.18;;;17.60;99.90;;;;;;5061132;28;20048;-71
2022/05/13 00:25:44;;;;;;;10.98;7.40;;;17.50;99.90;;;;;;5064656;28;20032;-71
2022/05/13 00:28:10;;;;;;;7.25;5.82;;;17.50;99.90;;;;;;5044498;28;20081;-71
2022/05/13 00:30:40;;;;;;;8.27;6.63;;;17.50;99.90;;;;;;5065112;28;20024;-71
2022/05/13 00:33:11;;;;;;;13.80;6.82;;;17.50;99.90;;;;;;5057545;28;20500;-71
2022/05/13 00:35:38;;;;;;;11.48;6.20;;;17.50;99.90;;;;;;5051146;28;20031;-71
2022/05/13 00:38:04;;;;;;;9.43;6.55;;;17.50;99.90;;;;;;5067611;28;20111;-71
2022/05/13 00:40:29;;;;;;;8.40;6.47;;;17.50;99.90;;;;;;5064244;28;20029;-71
2022/05/13 00:43:01;;;;;;;8.95;6.90;;;17.50;99.90;;;;;;5046827;28;20028;-71
2022/05/13 00:45:27;;;;;;;7.93;5.93;;;17.50;99.90;;;;;;5064409;28;20021;-71
2022/05/13 00:48:02;;;;;;;11.00;6.15;;;17.50;99.90;;;;;;5060968;28;20075;-71
2022/05/13 00:50:30;;;;;;;8.52;6.10;;;17.50;99.90;;;;;;5062157;28;20125;-71
2022/05/13 00:53:02;;;;;;;11.55;5.97;;;17.50;99.90;;;;;;5064962;28;20025;-71
2022/05/13 00:55:35;;;;;;;9.27;5.40;;;17.50;99.90;;;;;;5064341;28;20075;-71
2022/05/13 00:58:07;;;;;;;10.20;5.43;;;17.50;99.90;;;;;;5065368;28;20032;-71
2022/05/13 01:00:33;;;;;;;8.07;6.10;;;17.50;99.90;;;;;;5064626;28;20028;-71
2022/05/13 01:03:01;;;;;;;8.43;5.97;;;17.50;99.90;;;;;;5060249;28;20044;-71
2022/05/13 01:05:28;;;;;;;10.52;6.30;;;17.50;99.90;;;;;;5068288;28;20095;-71
2022/05/13 01:07:54;;;;;;;8.73;5.93;;;17.50;99.90;;;;;;5048665;28;20024;-70
2022/05/13 01:10:26;;;;;;;8.45;5.85;;;17.40;99.90;;;;;;5050671;28;20048;-71
2022/05/13 01:12:57;;;;;;;13.43;6.68;;;17.40;99.90;;;;;;5060290;28;20501;-71
2022/05/13 01:15:31;;;;;;;8.20;6.30;;;17.40;99.90;;;;;;5066087;28;20074;-71
2022/05/13 01:18:06;;;;;;;9.85;5.80;;;17.40;99.90;;;;;;5064316;28;20028;-71
2022/05/13 01:20:40;;;;;;;9.45;6.30;;;17.40;99.90;;;;;;5051452;28;20075;-71
2022/05/13 01:23:09;;;;;;;;;;;17.30;99.90;;;;;;5068187;28;20032;-71
2022/05/13 01:25:45;;;;;;;8.52;5.68;;;17.30;99.90;;;;;;5067039;28;20451;-71
2022/05/13 01:28:38;;;;;;;6.20;5.35;;;17.30;99.90;;;;;;5067481;28;20028;-71
2022/05/13 01:31:13;;;;;;;8.33;6.63;;;17.30;99.90;;;;;;5064723;28;20028;-71
2022/05/13 01:33:41;;;;;;;7.57;5.65;;;17.30;99.90;;;;;;5065378;28;20288;-71
2022/05/13 01:36:09;;;;;;;12.63;5.35;;;17.20;99.90;;;;;;5067566;28;20035;-71
2022/05/13 01:38:40;;;;;;;9.52;5.68;;;17.30;99.90;;;;;;5066119;28;20051;-71
2022/05/13 01:41:10;;;;;;;7.63;5.40;;;17.30;99.90;;;;;;5066874;28;20035;-71
2022/05/13 01:43:37;;;;;;;9.20;4.88;;;17.20;99.90;;;;;;5065387;28;21060;-71
2022/05/13 01:46:06;;;;;;;7.00;5.07;;;17.20;99.90;;;;;;5065738;28;20033;-71
2022/05/13 01:48:32;;;;;;;7.28;5.47;;;17.20;99.90;;;;;;5066130;28;20047;-72
2022/05/13 01:51:01;;;;;;;6.63;5.07;;;17.20;99.90;;;;;;5067969;28;20033;-71
2022/05/13 01:53:26;;;;;;;8.45;5.40;;;17.20;99.90;;;;;;5045103;28;20545;-72
2022/05/13 01:55:52;;;;;;;13.25;5.07;;;17.20;99.90;;;;;;5067441;28;20124;-72
2022/05/13 01:58:22;;;;;;;9.05;5.05;;;17.20;99.90;;;;;;5067840;28;20052;-72
2022/05/13 02:00:49;;;;;;;7.65;5.20;;;17.20;99.90;;;;;;5066352;28;20020;-71
2022/05/13 02:06:09;;;;;;;6.55;5.10;;;17.20;99.90;;;;;;5063674;28;20528;-72
2022/05/13 02:08:35;;;;;;;7.20;5.82;;;17.20;99.90;;;;;;5050729;28;20025;-72
2022/05/13 02:11:02;;;;;;;5.20;4.43;;;17.20;99.90;;;;;;5062658;28;20023;-72
2022/05/13 02:13:34;;;;;;;18.17;5.43;;;17.20;99.90;;;;;;5065039;28;20039;-72
2022/05/13 02:16:00;;;;;;;8.55;4.90;;;17.20;99.90;;;;;;5063456;28;20116;-72
2022/05/13 02:18:41;;;;;;;9.07;5.10;;;17.20;99.90;;;;;;5066523;28;20032;-72
2022/05/13 02:21:17;;;;;;;8.23;4.68;;;17.10;99.90;;;;;;5065390;28;20489;-72
2022/05/13 02:23:49;;;;;;;7.00;4.80;;;17.10;99.90;;;;;;5064911;28;20033;-72
2022/05/13 02:26:17;;;;;;;5.72;4.57;;;17.10;99.90;;;;;;5065722;28;20024;-71
2022/05/13 02:28:47;;;;;;;7.53;4.85;;;17.10;99.90;;;;;;5063874;28;20036;-71
2022/05/13 02:31:17;;;;;;;7.32;4.95;;;17.10;99.90;;;;;;5065623;28;20028;-71
2022/05/13 02:33:51;;;;;;;11.57;5.72;;;17.10;99.90;;;;;;5065536;28;20024;-71
2022/05/13 02:36:17;;;;;;;7.63;5.05;;;17.10;99.90;;;;;;5054568;28;20369;-71
2022/05/13 02:38:43;;;;;;;5.65;4.25;;;17.10;99.90;;;;;;5063500;28;20036;-71
2022/05/13 02:41:11;;;;;;;6.82;5.18;;;17.10;99.90;;;;;;5050062;28;20478;-71
2022/05/13 02:43:39;;;;;;;8.27;4.97;;;17.10;99.90;;;;;;5066559;28;20028;-71
2022/05/13 02:46:28;;;;;;;5.88;4.32;;;17.10;99.90;;;;;;5047312;28;20078;-72
2022/05/13 02:48:55;;;;;;;9.32;4.80;;;17.10;99.90;;;;;;5047359;28;20033;-72
2022/05/13 02:51:21;;;;;;;6.88;4.65;;;17.10;99.90;;;;;;5061580;28;20025;-71
2022/05/13 02:53:47;;;;;;;6.65;5.20;;;17.10;99.90;;;;;;5048046;28;20016;-71
2022/05/13 02:56:14;;;;;;;8.57;5.05;;;17.10;99.90;;;;;;5065361;28;20074;-71
2022/05/13 02:58:41;;;;;;;6.65;4.35;;;17.10;99.90;;;;;;5052534;28;20024;-71
2022/05/13 03:01:09;;;;;;;8.15;3.92;;;17.10;99.90;;;;;;5065003;28;20025;-71
2022/05/13 03:03:39;;;;;;;5.82;4.38;;;17.10;99.90;;;;;;5065148;28;20033;-71
2022/05/13 03:06:05;;;;;;;5.32;4.60;;;17.10;99.90;;;;;;5064597;28;20487;-71
2022/05/13 03:08:30;;;;;;;15.52;5.60;;;17.10;99.90;;;;;;5062553;28;20161;-71
2022/05/13 03:11:05;;;;;;;6.93;4.78;;;17.00;99.90;;;;;;5048398;28;20048;-71
2022/05/13 03:13:31;;;;;;;8.27;5.00;;;17.10;99.90;;;;;;5064141;28;20031;-72
2022/05/13 03:16:09;;;;;;;7.07;4.88;;;17.10;99.90;;;;;;5049492;28;20036;-71
2022/05/13 03:18:41;;;;;;;5.78;4.30;;;17.00;99.90;;;;;;5066071;28;20025;-72
2022/05/13 03:21:08;;;;;;;7.32;4.88;;;17.00;99.90;;;;;;5064519;28;20052;-71
2022/05/13 03:23:38;;;;;;;5.72;4.20;;;17.00;99.90;;;;;;5055253;28;20036;-72
2022/05/13 03:26:18;;;;;;;6.85;4.72;;;17.00;99.90;;;;;;5065520;28;20044;-71
2022/05/13 03:28:47;;;;;;;6.28;4.22;;;17.00;99.90;;;;;;5065524;28;20017;-71
2022/05/13 03:31:13;;;;;;;7.22;4.40;;;17.00;99.90;;;;;;5064395;28;20108;-71
2022/05/13 03:33:42;;;;;;;8.75;5.63;;;17.00;99.90;;;;;;5059721;28;20111;-71
2022/05/13 03:36:12;;;;;;;9.45;5.35;;;17.00;99.90;;;;;;5065999;28;20029;-71
2022/05/13 03:38:37;;;;;;;9.30;5.03;;;16.90;99.90;;;;;;5062368;28;20415;-71
2022/05/13 03:41:07;;;;;;;7.80;5.60;;;16.90;99.90;;;;;;5066203;28;20029;-72
2022/05/13 03:43:32;;;;;;;8.52;5.80;;;16.90;99.90;;;;;;5067014;28;20017;-71
2022/05/13 03:45:58;;;;;;;9.05;5.53;;;16.90;99.90;;;;;;5065104;28;20382;-72
2022/05/13 03:48:24;;;;;;;8.85;5.75;;;16.90;99.90;;;;;;5062298;28;20509;-72
2022/05/13 03:50:50;;;;;;;10.07;5.90;;;17.00;99.90;;;;;;5064778;28;20195;-72
2022/05/13 03:53:18;;;;;;;7.95;6.35;;;16.90;99.90;;;;;;5071250;28;20032;-72
2022/05/13 03:55:50;;;;;;;9.10;6.10;;;16.90;99.90;;;;;;5067515;28;20021;-72
2022/05/13 03:58:21;;;;;;;6.65;5.70;;;16.90;99.90;;;;;;5067508;28;20111;-72
2022/05/13 04:00:51;;;;;;;8.02;6.25;;;17.00;99.90;;;;;;5098048;22;20041;-72
2022/05/13 04:03:19;;;;;;;7.85;5.97;;;16.90;99.90;;;;;;5069548;28;20393;-72
2022/05/13 04:11:16;;;;;;;7.47;5.72;;;17.10;99.90;;;;;;5062417;28;20028;-73
2022/05/13 04:16:26;;;;;;;11.18;5.70;;;17.00;99.90;;;;;;5050204;28;20052;-74
2022/05/13 04:18:53;;;;;;;8.63;6.70;;;17.10;99.90;;;;;;5046177;28;20025;-72
2022/05/13 04:21:29;;;;;;;7.40;5.93;;;17.00;99.90;;;;;;5045780;28;20288;-72
2022/05/13 04:23:59;;;;;;;6.60;5.38;;;17.00;99.90;;;;;;5030708;28;20383;-73
2022/05/13 04:26:28;;;;;;;7.22;5.40;;;17.00;99.90;;;;;;5044391;28;20111;-73
2022/05/13 04:28:55;;;;;;;6.60;4.85;;;17.00;99.90;;;;;;5046225;28;20393;-73
2022/05/13 04:31:27;;;;;;;8.35;6.10;;;17.00;99.90;;;;;;5043152;28;20116;-72
2022/05/13 04:33:55;;;;;;;9.93;5.97;;;17.10;99.90;;;;;;5046819;28;20047;-71
2022/05/13 04:36:23;;;;;;;9.75;6.22;;;17.00;99.90;;;;;;5030178;28;20397;-70
2022/05/13 04:38:49;;;;;;;9.35;5.68;;;17.00;99.90;;;;;;5044557;28;20029;-74
2022/05/13 04:44:04;;;;;;;10.07;5.60;;;17.10;99.90;;;;;;5052712;28;20078;-71
2022/05/13 04:46:31;;;;;;;8.88;5.25;;;17.00;99.90;;;;;;5053373;28;20044;-72
2022/05/13 04:49:00;;;;;;;7.78;4.97;;;17.00;99.90;;;;;;5051157;28;20021;-72
2022/05/13 04:51:32;;;;;;;8.77;5.07;;;17.10;99.90;;;;;;5048676;28;20047;-72
2022/05/13 04:53:58;;;;;;;9.18;5.40;;;17.10;99.90;;;;;;5043783;28;20071;-72
2022/05/13 04:56:26;;;;;;;7.10;4.93;;;17.10;99.90;;;;;;5051005;28;20082;-73
2022/05/13 04:58:52;;;;;;;6.90;5.70;;;17.20;99.90;;;;;;5047407;28;20112;-72
2022/05/13 05:01:20;;;;;;;6.68;5.55;;;17.20;99.90;;;;;;5049235;28;20060;-72
2022/05/13 05:03:46;;;;;;;7.85;5.75;;;17.20;99.90;;;;;;5045167;28;20021;-73
2022/05/13 05:06:13;;;;;;;10.38;6.40;;;17.20;99.90;;;;;;5050051;28;20082;-72
2022/05/13 05:08:45;;;;;;;9.45;6.60;;;17.20;99.90;;;;;;5049206;28;20025;-74
2022/05/13 05:11:15;;;;;;;7.93;5.53;;;17.20;99.90;;;;;;5050535;28;20157;-73
2022/05/13 05:13:47;;;;;;;8.85;5.93;;;17.20;99.90;;;;;;5051142;28;20099;-73
2022/05/13 05:16:16;;;;;;;8.32;5.80;;;17.20;99.90;;;;;;5052640;28;20132;-74
2022/05/13 05:18:43;;;;;;;10.43;5.30;;;17.20;99.90;;;;;;5049851;28;20297;-72
2022/05/13 05:21:10;;;;;;;7.47;5.53;;;17.30;99.90;;;;;;5044274;28;20033;-73
2022/05/13 05:23:38;;;;;;;13.23;5.85;;;17.30;99.90;;;;;;5028856;28;20064;-72
2022/05/13 05:26:05;;;;;;;6.45;5.13;;;17.30;99.90;;;;;;5040574;28;20536;-72
2022/05/13 05:28:32;;;;;;;6.07;5.10;;;17.30;99.90;;;;;;5043866;28;20025;-73
2022/05/13 05:31:01;;;;;;;6.20;4.80;;;17.30;99.90;;;;;;5022393;28;20029;-72
2022/05/13 05:33:28;;;;;;;8.40;4.82;;;17.40;99.90;;;;;;5039210;28;20433;-72
2022/05/13 05:35:53;;;;;;;8.15;5.47;;;17.40;99.90;;;;;;5020773;28;20116;-73
2022/05/13 05:38:19;;;;;;;13.18;5.75;;;17.30;99.90;;;;;;5038841;28;20485;-73
2022/05/13 05:40:44;;;;;;;8.45;5.47;;;17.40;99.90;;;;;;5039006;28;20056;-74
2022/05/13 05:43:14;;;;;;;8.88;5.35;;;17.50;99.90;;;;;;5043566;28;20482;-74
2022/05/13 05:45:40;;;;;;;8.75;6.03;;;17.40;99.90;;;;;;5044903;28;20043;-74
2022/05/13 05:48:08;;;;;;;12.95;6.40;;;17.50;99.90;;;;;;5036562;28;20416;-74
2022/05/13 05:50:35;;;;;;;8.60;6.05;;;17.40;99.90;;;;;;5028062;28;20025;-74
2022/05/13 05:53:01;;;;;;;7.72;5.70;;;17.40;99.90;;;;;;5042706;28;20025;-74
2022/05/13 05:58:15;;;;;;;8.20;5.50;;;17.30;99.90;;;;;;5041725;28;20488;-74
2022/05/13 06:00:43;;;;;;;7.53;5.30;;;17.30;99.90;;;;;;5036929;28;20083;-74
2022/05/13 06:03:10;;;;;;;9.77;6.40;;;17.30;99.90;;;;;;5042546;28;20036;-74
2022/05/13 06:05:36;;;;;;;9.85;5.47;;;17.30;99.90;;;;;;5043496;28;20103;-74
2022/05/13 06:08:03;;;;;;;6.95;5.43;;;17.30;99.90;;;;;;5036710;28;20021;-74
2022/05/13 06:10:35;;;;;;;9.70;6.50;;;17.30;99.90;;;;;;5043919;28;20052;-74
2022/05/13 06:13:05;;;;;;;9.00;5.28;;;17.30;99.90;;;;;;5043840;28;20021;-77
2022/05/13 06:15:31;;;;;;;7.55;4.95;;;17.30;99.90;;;;;;5047261;28;20021;-75
2022/05/13 06:17:57;;;;;;;7.47;6.13;;;17.20;99.90;;;;;;5046081;28;20107;-75
2022/05/13 06:20:26;;;;;;;8.00;5.70;;;17.30;99.90;;;;;;5043037;28;20116;-74
2022/05/13 06:22:52;;;;;;;7.55;5.43;;;17.20;99.90;;;;;;5043054;28;20389;-74
2022/05/13 06:25:19;;;;;;;10.55;6.43;;;17.20;99.90;;;;;;5039788;28;20040;-74
2022/05/13 06:27:46;;;;;;;11.90;7.00;;;17.20;99.90;;;;;;5037382;28;20029;-74
2022/05/13 06:30:19;;;;;;;12.40;7.13;;;17.10;99.90;;;;;;5046086;28;20365;-75
2022/05/13 06:32:45;;;;;;;10.13;6.15;;;17.10;99.90;;;;;;5046490;28;20075;-74
2022/05/13 06:35:12;;;;;;;11.63;5.90;;;17.00;99.90;;;;;;5045005;28;20037;-74
2022/05/13 06:37:37;;;;;;;6.03;4.25;;;16.90;99.90;;;;;;5044449;28;20108;-75
2022/05/13 06:40:05;;;;;;;10.23;4.65;;;16.80;99.90;;;;;;5048495;28;20117;-74
2022/05/13 06:42:31;;;;;;;9.57;5.25;;;16.80;99.90;;;;;;5045780;28;20499;-74
2022/05/13 06:44:56;;;;;;;10.43;5.03;;;16.70;99.90;;;;;;5043181;28;20112;-73
2022/05/13 06:47:22;;;;;;;10.40;5.20;;;16.60;99.90;;;;;;5043755;28;20351;-74
2022/05/13 06:49:48;;;;;;;18.85;6.53;;;16.60;99.90;;;;;;5039713;28;20029;-73
2022/05/13 06:52:13;;;;;;;9.18;5.57;;;16.60;99.90;;;;;;5044788;28;20029;-73
2022/05/13 06:54:43;;;;;;;12.43;5.88;;;16.60;99.90;;;;;;5043049;28;20025;-74
2022/05/13 06:57:10;;;;;;;14.90;6.50;;;16.60;99.90;;;;;;5043072;28;20040;-74
2022/05/13 06:59:36;;;;;;;9.40;5.18;;;16.60;99.90;;;;;;5030244;28;20098;-74
2022/05/13 07:02:03;;;;;;;12.88;6.53;;;16.50;99.90;;;;;;5042754;28;20188;-74
2022/05/13 07:04:29;;;;;;;10.05;5.38;;;16.50;99.90;;;;;;5047346;28;20043;-73
2022/05/13 07:06:54;;;;;;;11.75;5.97;;;16.40;99.90;;;;;;5052032;28;20025;-73
2022/05/13 07:09:20;;;;;;;11.50;6.00;;;16.40;99.90;;;;;;5030234;28;20233;-74
2022/05/13 07:11:46;;;;;;;9.30;5.05;;;16.40;99.90;;;;;;5038529;28;20029;-74
2022/05/13 07:14:12;;;;;;;11.50;5.90;;;16.40;99.90;;;;;;5038901;28;20025;-74
2022/05/13 07:16:38;;;;;;;11.43;5.72;;;16.40;99.90;;;;;;5047889;28;20052;-73
2022/05/13 07:19:04;;;;;;;10.85;5.10;;;16.50;99.90;;;;;;5044861;28;20021;-73
2022/05/13 07:21:30;;;;;;;11.50;5.65;;;16.50;99.90;;;;;;5047151;28;20056;-74
2022/05/13 07:23:56;;;;;;;10.45;4.80;;;16.60;99.90;;;;;;5045285;28;20033;-74
2022/05/13 07:26:22;;;;;;;9.73;5.00;;;16.50;99.90;;;;;;5044703;28;20108;-74
2022/05/13 07:28:47;;;;;;;11.05;5.32;;;16.60;99.90;;;;;;5047118;28;20496;-73
2022/05/13 07:31:13;;;;;;;7.22;5.72;;;16.50;99.90;;;;;;5020556;28;20044;-73
2022/05/13 07:33:39;;;;;;;10.05;4.95;;;16.50;99.90;;;;;;5026218;28;20401;-74
2022/05/13 07:36:06;;;;;;;9.57;5.47;;;16.50;99.90;;;;;;5044833;28;20489;-74
2022/05/13 07:38:32;;;;;;;8.80;5.20;;;16.50;99.90;;;;;;5047181;28;20054;-74
2022/05/13 07:41:16;;;;;;;9.15;4.88;;;16.60;99.90;;;;;;5042393;28;20076;-74
2022/05/13 07:43:46;;;;;;;9.05;5.15;;;16.60;99.90;;;;;;5025452;28;20037;-74
2022/05/13 07:46:13;;;;;;;7.63;5.05;;;16.60;99.90;;;;;;5041304;28;20481;-74
2022/05/13 07:48:40;;;;;;;8.05;4.57;;;16.60;99.90;;;;;;5044758;28;20016;-74
2022/05/13 07:51:08;;;;;;;8.75;5.65;;;16.60;99.90;;;;;;5042583;28;20025;-74
2022/05/13 07:53:34;;;;;;;11.77;5.43;;;16.70;99.90;;;;;;5039247;28;20482;-74
2022/05/13 07:56:00;;;;;;;8.38;4.82;;;16.70;99.90;;;;;;5045974;28;20405;-73
2022/05/13 07:58:25;;;;;;;8.05;4.60;;;16.70;99.90;;;;;;5028392;28;20033;-74
2022/05/13 08:00:51;;;;;;;8.90;5.30;;;16.60;99.90;;;;;;5029981;28;20052;-74
2022/05/13 08:03:17;;;;;;;7.22;5.00;;;16.60;99.90;;;;;;5023373;28;20484;-75
2022/05/13 08:05:50;;;;;;;10.52;4.57;;;16.60;99.90;;;;;;5040025;28;20059;-74
2022/05/13 08:08:27;;;;;;;7.93;4.90;;;16.60;99.90;;;;;;5048222;28;20078;-74
2022/05/13 08:10:57;;;;;;;10.82;5.30;;;16.70;99.90;;;;;;5042095;28;21031;-76
2022/05/13 08:13:24;;;;;;;12.43;4.55;;;16.80;99.90;;;;;;5045826;28;20029;-74
2022/05/13 08:15:50;;;;;;;9.07;4.72;;;16.80;99.90;;;;;;5050116;28;20171;-74
2022/05/13 08:18:17;;;;;;;7.93;4.60;;;16.80;99.90;;;;;;5043156;28;20036;-74
2022/05/13 08:20:44;;;;;;;7.22;4.13;;;16.80;99.90;;;;;;5042515;28;20393;-73
2022/05/13 08:23:10;;;;;;;7.50;3.95;;;16.80;99.90;;;;;;5023427;28;20025;-73
2022/05/13 08:25:36;;;;;;;11.82;4.25;;;16.80;99.90;;;;;;5043659;28;20130;-73
2022/05/13 08:28:01;;;;;;;8.70;4.47;;;16.70;99.90;;;;;;5047180;28;20412;-73
2022/05/13 08:30:27;;;;;;;7.75;4.13;;;16.70;99.90;;;;;;5028156;28;20500;-74
2022/05/13 08:32:53;;;;;;;7.88;3.90;;;16.70;99.90;;;;;;5044998;28;20037;-73
2022/05/13 08:35:20;;;;;;;7.72;4.55;;;16.80;99.90;;;;;;5045515;28;20033;-73
2022/05/13 08:37:49;;;;;;;10.02;4.93;;;16.80;99.90;;;;;;5044340;28;20056;-74
2022/05/13 08:40:35;;;;;;;8.32;4.28;;;16.80;99.90;;;;;;5046110;28;20029;-73
2022/05/13 08:43:08;;;;;;;9.05;4.30;;;16.90;99.90;;;;;;5048667;28;20136;-74
2022/05/13 08:45:37;;;;;;;9.68;3.30;;;17.00;99.90;;;;;;5043952;28;20029;-74
2022/05/13 08:48:08;;;;;;;5.22;3.33;;;17.00;99.90;;;;;;5046861;28;20505;-73
2022/05/13 08:51:04;;;;;;;7.00;3.70;;;17.00;99.90;;;;;;5027830;28;20021;-75
2022/05/13 08:53:35;;;;;;;7.47;3.72;;;17.10;99.90;;;;;;5045141;28;20051;-75
2022/05/13 08:56:07;;;;;;;11.82;3.85;;;17.10;99.90;;;;;;5048147;28;20052;-76
2022/05/13 08:58:59;;;;;;;9.20;3.67;;;17.20;99.90;;;;;;5046297;28;20509;-75
2022/05/13 09:01:30;;;;;;;9.15;3.33;;;17.10;99.90;;;;;;5048056;28;20041;-74
2022/05/13 09:04:06;;;;;;;8.10;2.97;;;17.20;99.90;;;;;;5030063;28;20051;-74
2022/05/13 09:06:36;;;;;;;7.63;3.67;;;17.30;99.90;;;;;;5045819;28;20104;-74
2022/05/13 09:09:04;;;;;;;4.80;2.97;;;17.30;99.90;;;;;;5043077;28;20026;-74
2022/05/13 09:11:38;;;;;;;8.85;3.22;;;17.20;99.90;;;;;;5047214;28;20415;-74
2022/05/13 09:14:25;;;;;;;10.05;3.08;;;17.20;99.90;;;;;;5049298;28;20017;-74
2022/05/13 09:17:03;;;;;;;8.75;3.88;;;17.30;99.90;;;;;;5046981;28;20394;-75
2022/05/13 09:19:58;;;;;;;6.82;3.38;;;17.40;99.90;;;;;;5033075;28;20052;-75
2022/05/13 09:22:38;;;;;;;8.60;3.75;;;17.40;99.90;;;;;;5044930;28;20036;-75
2022/05/13 09:25:05;;;;;;;8.98;3.30;;;17.40;99.90;;;;;;5045069;28;20098;-75
2022/05/13 09:27:46;;;;;;;7.55;3.10;;;17.40;99.90;;;;;;5046416;28;20025;-73
2022/05/13 09:30:17;;;;;;;10.88;3.80;;;17.30;99.90;;;;;;5044153;28;20059;-74
2022/05/13 09:32:43;;;;;;;6.30;3.55;;;17.30;99.90;;;;;;4999100;28;20518;-74
2022/05/13 09:35:13;;;;;;;10.63;3.55;;;17.40;99.90;;;;;;5029835;28;20020;-72
2022/05/13 09:37:42;;;;;;;7.68;3.03;;;17.40;99.90;;;;;;5031842;28;20029;-71
2022/05/13 09:40:16;;;;;;;5.13;2.63;;;17.50;99.90;;;;;;5050745;28;20090;-72
2022/05/13 09:42:51;;;;;;;7.88;2.88;;;17.60;99.90;;;;;;5040345;28;20029;-72
2022/05/13 09:45:35;;;;;;;5.65;3.20;;;17.70;99.90;;;;;;5044314;28;20071;-73
2022/05/13 09:48:06;;;;;;;12.20;4.18;;;17.90;99.90;;;;;;5048398;28;20047;-74
2022/05/13 09:50:38;;;;;;;6.93;3.58;;;17.90;99.90;;;;;;5048723;28;20393;-72
2022/05/13 09:53:15;;;;;;;7.18;2.85;;;18.10;99.90;;;;;;5042651;28;21014;-74
2022/05/13 09:55:43;;;;;;;8.30;3.17;;;18.20;99.90;;;;;;5039078;28;20112;-73
2022/05/13 09:58:22;;;;;;;8.30;3.65;;;18.30;99.90;;;;;;5052476;28;20024;-72
2022/05/13 10:00:53;;;;;;;9.52;3.65;;;18.40;99.90;;;;;;5061262;22;20033;-74
2022/05/13 10:03:25;;;;;;;7.55;3.15;;;18.60;99.90;;;;;;5100662;28;20042;-73
2022/05/13 10:06:27;;;;;;;7.05;3.30;;;18.80;99.90;;;;;;5093147;28;20524;-74
2022/05/13 10:14:39;;;;;;;7.95;2.83;;;19.20;99.90;;;;;;5090062;28;20042;-72
2022/05/13 10:17:08;;;;;;;5.20;3.20;;;19.40;99.90;;;;;;5091976;28;20042;-71
2022/05/13 10:19:37;;;;;;;5.93;3.10;;;19.50;99.90;;;;;;5091699;28;20483;-71
2022/05/13 10:22:09;;;;;;;7.68;3.00;;;19.70;99.90;;;;;;5087017;28;20487;-72
2022/05/13 10:24:54;;;;;;;8.85;3.20;;;19.80;99.90;;;;;;5089648;28;20410;-71
2022/05/13 10:27:45;;;;;;;7.65;2.25;;;20.10;99.90;;;;;;5070940;28;20024;-72
2022/05/13 10:30:36;;;;;;;6.72;3.35;;;20.30;99.90;;;;;;5088210;28;20425;-72
2022/05/13 10:33:44;;;;;;;6.50;2.60;;;20.60;99.90;;;;;;5090831;28;20195;-71
2022/05/13 10:36:13;;;;;;;10.32;2.67;;;20.70;99.90;;;;;;5065974;28;20485;-71
2022/05/13 10:38:44;;;;;;;6.03;2.67;;;20.70;99.90;;;;;;5065448;28;20039;-72
2022/05/13 10:41:21;;;;;;;6.75;2.97;;;20.80;99.90;;;;;;5082705;28;20024;-73
2022/05/13 10:43:57;;;;;;;6.22;2.38;;;20.80;99.90;;;;;;5062266;28;20031;-73
2022/05/13 10:46:45;;;;;;;6.25;2.20;;;20.80;99.90;;;;;;5082988;28;20037;-74
2022/05/13 10:49:12;;;;;;;11.23;3.28;;;20.80;99.90;;;;;;5081417;28;20333;-74
2022/05/13 10:52:10;;;;;;;7.22;3.13;;;20.90;99.90;;;;;;5085493;28;20055;-73
2022/05/13 10:54:58;;;;;;;7.93;2.95;;;20.90;99.90;;;;;;5060796;28;20027;-73
2022/05/13 10:57:46;;;;;;;9.73;3.03;;;20.70;99.90;;;;;;5081110;28;20043;-74
2022/05/13 11:00:30;;;;;;;6.93;2.90;;;20.70;99.90;;;;;;5064543;28;20793;-74
2022/05/13 11:03:12;;;;;;;8.32;3.17;;;20.70;99.90;;;;;;5079655;28;20523;-73
2022/05/13 11:06:19;;;;;;;12.00;3.92;;;20.60;99.90;;;;;;5083464;28;20035;-73
2022/05/13 11:08:51;;;;;;;10.27;3.42;;;20.70;99.90;;;;;;5064706;28;20028;-73
2022/05/13 11:11:35;;;;;;;7.93;3.47;;;20.60;99.90;;;;;;5078599;28;20093;-74
2022/05/13 11:14:04;;;;;;;;;;;20.50;99.90;;;;;;5083344;28;20387;-74
2022/05/13 11:16:29;;;;;;;6.30;2.40;;;20.40;99.90;;;;;;5079492;28;19931;-72
2022/05/13 11:19:22;;;;;;;4.43;3.05;;;20.30;99.90;;;;;;5063525;28;20028;-71
2022/05/13 11:22:20;;;;;;;8.88;3.08;;;20.10;99.90;;;;;;5063623;28;20105;-75
2022/05/13 11:28:28;;;;;;;8.05;3.00;;;19.90;99.90;;;;;;5082121;28;20621;-74
2022/05/13 11:31:00;;;;;;;8.23;3.15;;;20.10;99.90;;;;;;5067612;28;20107;-72
2022/05/13 11:33:42;;;;;;;8.13;2.90;;;20.20;99.90;;;;;;5078760;28;20024;-73
2022/05/13 11:36:10;;;;;;;7.70;3.05;;;20.30;99.90;;;;;;5070030;28;20028;-72
2022/05/13 11:39:03;;;;;;;4.53;2.90;;;20.40;99.90;;;;;;5086445;28;20453;-72
2022/05/13 11:41:55;;;;;;;8.98;3.50;;;20.60;99.90;;;;;;5073229;28;20842;-72
2022/05/13 11:44:33;;;;;;;12.85;2.85;;;20.80;99.90;;;;;;5083084;28;20034;-74
2022/05/13 11:47:07;;;;;;;7.22;3.30;;;20.90;99.90;;;;;;5070050;28;20535;-72
2022/05/13 11:49:40;;;;;;;7.93;3.55;;;21.10;99.90;;;;;;5081732;28;20046;-76
2022/05/13 11:52:11;;;;;;;7.07;2.78;;;21.20;99.90;;;;;;5081152;28;20028;-76
2022/05/13 11:54:40;;;;;;;6.43;3.05;;;21.20;99.90;;;;;;5065899;28;20103;-75
2022/05/13 11:57:23;;;;;;;6.88;2.72;;;21.10;99.90;;;;;;5089034;28;20415;-74
2022/05/13 11:59:50;;;;;;;11.10;3.60;;;21.20;99.90;;;;;;5057554;28;20575;-74
2022/05/13 12:02:30;;;;;;;6.57;3.13;;;21.20;99.90;;;;;;5077982;28;20056;-76
2022/05/13 12:05:30;;;;;;;10.23;3.10;;;21.20;99.90;;;;;;5081087;28;20020;-76
2022/05/13 12:08:07;;;;;;;9.77;2.63;;;21.10;99.90;;;;;;5015013;28;20040;-75
2022/05/13 12:11:03;;;;;;;5.57;2.55;;;21.20;99.90;;;;;;5068109;28;20020;-75
2022/05/13 12:14:01;;;;;;;8.38;2.40;;;21.30;99.90;;;;;;5068521;28;20032;-74
2022/05/13 12:16:42;;;;;;;5.38;2.50;;;21.60;99.90;;;;;;5075117;28;20036;-75
2022/05/13 12:19:14;;;;;;;7.57;2.65;;;21.80;99.90;;;;;;5084569;28;20025;-75
2022/05/13 12:22:06;;;;;;;7.05;2.83;;;22.10;99.80;;;;;;5073017;28;20500;-76
2022/05/13 12:25:01;;;;;;;5.85;2.20;;;22.30;99.00;;;;;;5058105;28;20036;-74
2022/05/13 12:27:46;;;;;;;;;;;22.40;98.70;;;;;;5093304;28;20028;-74
2022/05/13 12:30:34;;;;;;;7.28;2.45;;;22.40;98.90;;;;;;5082574;28;19912;-74
2022/05/13 12:33:24;;;;;;;5.13;2.42;;;22.40;98.30;;;;;;5075734;28;20111;-75
2022/05/13 12:39:10;;;;;;;4.05;2.67;;;22.50;98.30;;;;;;5089362;28;20070;-74
2022/05/13 12:41:43;;;;;;;13.15;2.47;;;22.60;97.90;;;;;;5022720;28;20129;-75
2022/05/13 12:44:27;;;;;;;8.27;2.88;;;22.70;98.40;;;;;;5070701;28;20030;-75
2022/05/13 12:47:12;;;;;;;5.22;2.75;;;22.70;97.20;;;;;;5080590;28;20056;-75
2022/05/13 12:50:19;;;;;;;4.93;2.85;;;22.60;97.20;;;;;;5067460;28;20051;-75
2022/05/13 12:52:45;;;;;;;8.30;3.00;;;22.70;97.20;;;;;;5081971;28;26190;-74
2022/05/13 12:55:21;;;;;;;8.68;2.60;;;22.60;97.30;;;;;;5079452;28;20035;-74
2022/05/13 12:57:52;;;;;;;8.80;2.70;;;22.60;97.80;;;;;;5072834;28;20027;-76
2022/05/13 13:00:25;;;;;;;6.60;2.63;;;22.50;97.60;;;;;;5062219;28;20504;-74
2022/05/13 13:02:57;;;;;;;8.55;2.70;;;22.50;97.40;;;;;;5083323;28;20109;-73
2022/05/13 13:05:34;;;;;;;8.05;2.17;;;22.60;97.50;;;;;;5087391;28;20826;-74
2022/05/13 13:08:13;;;;;;;10.65;3.38;;;22.60;96.30;;;;;;5084313;28;20052;-73
2022/05/13 13:11:03;;;;;;;5.00;2.38;;;22.70;96.60;;;;;;5065724;28;20572;-72
2022/05/13 13:13:33;;;;;;;8.18;2.75;;;22.60;96.60;;;;;;5085080;28;20625;-72
2022/05/13 13:16:08;;;;;;;8.60;3.25;;;22.50;96.90;;;;;;5084259;28;20016;-73
2022/05/13 13:18:37;;;;;;;8.40;2.55;;;22.50;97.30;;;;;;5085053;28;20063;-73
2022/05/13 13:21:10;;;;;;;7.68;2.60;;;22.50;97.00;;;;;;5065584;28;20025;-73
2022/05/13 13:23:40;;;;;;;5.43;2.53;;;22.40;97.30;;;;;;5082199;28;20039;-71
2022/05/13 13:26:10;;;;;;;12.73;3.20;;;22.40;97.40;;;;;;5084277;28;20034;-72
2022/05/13 13:28:40;;;;;;;7.57;3.55;;;22.30;97.10;;;;;;5067092;28;20384;-74
2022/05/13 13:31:12;;;;;;;9.48;3.55;;;22.10;97.40;;;;;;5087435;28;20055;-71
2022/05/13 13:33:50;;;;;;;10.73;3.40;;;22.00;97.80;;;;;;5092085;28;20028;-72
2022/05/13 13:36:29;;;;;;;9.40;3.40;;;22.00;97.50;;;;;;5068908;28;20122;-76
2022/05/13 13:38:58;;;;;;;13.30;3.20;;;21.90;98.10;;;;;;5063692;28;21448;-73